createdAt,value
2023-04-20T00:42:23.186Z,8.67
2023-04-20T00:45:41.229Z,8.68
2023-04-20T00:48:15.070Z,8.61
2023-04-20T00:50:44.021Z,8.54
2023-04-20T01:40:27.051Z,8.15
2023-04-20T01:42:56.087Z,8.12
2023-04-20T01:45:24.481Z,8.10
2023-04-20T01:48:00.198Z,8.08
2023-04-20T01:50:31.356Z,8.07
2023-04-20T01:53:02.085Z,8.06
2023-04-20T01:55:33.859Z,8.04
2023-04-20T01:58:00.909Z,8.02
2023-04-20T02:00:28.109Z,8.01
2023-04-20T02:02:55.500Z,8.00
2023-04-20T02:05:54.835Z,8.01
2023-04-20T02:08:21.979Z,8.00
2023-04-20T02:10:49.205Z,7.99
2023-04-20T02:13:16.018Z,7.98
2023-04-20T02:15:45.490Z,7.99
2023-04-20T02:18:15.542Z,7.99
2023-04-20T02:20:43.651Z,7.99
2023-04-20T02:23:11.426Z,8.00
2023-04-20T02:25:38.268Z,7.99
2023-04-20T02:28:05.104Z,8.00
2023-04-20T02:30:32.101Z,8.00
2023-04-20T02:32:59.193Z,7.97
2023-04-20T02:35:26.340Z,7.97
2023-04-20T02:37:53.197Z,7.97
2023-04-20T02:40:20.739Z,7.95
2023-04-20T02:42:47.892Z,7.93
2023-04-20T02:45:15.480Z,7.90
2023-04-20T02:47:43.794Z,7.88
2023-04-20T02:50:11.515Z,7.85
2023-04-20T02:52:54.101Z,7.81
2023-04-20T02:55:21.074Z,7.80
2023-04-20T02:57:50.416Z,7.80
2023-04-20T03:00:18.544Z,7.81
2023-04-20T03:02:57.959Z,7.79
2023-04-20T03:05:26.691Z,7.78
2023-04-20T03:07:54.147Z,7.77
2023-04-20T03:10:21.570Z,7.76
2023-04-20T03:13:31.850Z,7.75
2023-04-20T03:16:02.408Z,7.74
2023-04-20T03:18:34.540Z,7.73
2023-04-20T03:21:01.439Z,7.72
2023-04-20T03:23:29.497Z,7.72
2023-04-20T03:25:57.550Z,7.71
2023-04-20T03:28:37.766Z,7.70
2023-04-20T03:31:06.277Z,7.70
2023-04-20T03:33:33.411Z,7.70
2023-04-20T03:36:01.342Z,7.71
2023-04-20T03:38:28.598Z,7.69
2023-04-20T03:40:55.374Z,7.69
2023-04-20T03:43:22.464Z,7.68
2023-04-20T03:45:50.132Z,7.66
2023-04-20T03:48:17.854Z,7.65
2023-04-20T03:50:44.572Z,7.65
2023-04-20T03:53:13.506Z,7.63
2023-04-20T03:55:40.821Z,7.61
2023-04-20T03:58:11.466Z,7.61
2023-04-20T04:01:08.923Z,7.59
2023-04-20T04:03:40.565Z,7.56
2023-04-20T04:06:11.009Z,7.54
2023-04-20T04:08:38.068Z,7.53
2023-04-20T04:11:05.316Z,7.51
2023-04-20T04:13:34.433Z,7.48
2023-04-20T04:16:03.076Z,7.47
2023-04-20T04:18:33.996Z,7.47
2023-04-20T04:21:06.088Z,7.46
2023-04-20T04:23:42.868Z,7.44
2023-04-20T07:07:18.741Z,10.44
2023-04-20T07:09:49.227Z,10.43
2023-04-20T07:57:10.723Z,10.84
2023-04-20T07:59:40.797Z,10.89
2023-04-20T08:02:15.379Z,10.93
2023-04-20T08:04:44.081Z,10.96
2023-04-20T08:07:11.626Z,11.00
2023-04-20T08:09:47.407Z,11.06
2023-04-20T08:12:14.462Z,11.12
2023-04-20T08:14:41.901Z,11.17
2023-04-20T08:17:08.977Z,11.26
2023-04-20T08:19:52.153Z,11.39
2023-04-20T08:22:19.230Z,11.70
2023-04-20T08:24:50.151Z,12.10
2023-04-20T08:27:17.768Z,12.36
2023-04-20T08:29:44.956Z,12.49
2023-04-20T08:32:23.237Z,12.72
2023-04-20T08:34:53.414Z,13.06
2023-04-20T08:37:20.530Z,13.26
2023-04-20T08:39:47.223Z,13.34
2023-04-20T08:42:24.401Z,13.34
2023-04-20T08:44:52.185Z,13.24
2023-04-20T08:47:23.997Z,13.15
2023-04-20T08:49:55.887Z,13.08
2023-04-20T08:52:25.248Z,13.06
2023-04-20T08:54:57.600Z,13.02
2023-04-20T08:57:25.484Z,12.98
2023-04-20T08:59:52.580Z,12.96
2023-04-20T09:02:19.678Z,12.91
2023-04-20T09:04:48.437Z,12.91
2023-04-20T09:07:20.963Z,12.94
2023-04-20T09:09:57.928Z,12.98
2023-04-20T09:12:25.626Z,12.98
2023-04-20T09:14:53.045Z,12.97
2023-04-20T09:17:42.327Z,12.97
2023-04-20T09:20:10.638Z,12.98
2023-04-20T09:22:38.916Z,13.03
2023-04-20T09:25:20.739Z,13.14
2023-04-20T09:28:01.660Z,13.26
2023-04-20T09:30:51.140Z,13.34
2023-04-20T09:33:18.949Z,13.41
2023-04-20T09:35:50.454Z,13.51
2023-04-20T09:38:31.168Z,13.61
2023-04-20T09:41:02.046Z,13.75
2023-04-20T09:43:35.575Z,13.88
2023-04-20T09:46:03.679Z,14.07
2023-04-20T09:48:32.245Z,14.28
2023-04-20T09:51:01.712Z,14.48
2023-04-20T09:53:31.468Z,14.73
2023-04-20T09:56:00.524Z,14.87
2023-04-20T09:58:28.695Z,15.05
2023-04-20T10:00:55.846Z,15.20
2023-04-20T10:03:23.303Z,15.29
2023-04-20T10:05:55.063Z,15.43
2023-04-20T10:08:37.763Z,15.65
2023-04-20T10:11:04.730Z,15.80
2023-04-20T10:13:34.714Z,15.97
2023-04-20T10:16:35.801Z,15.95
2023-04-20T10:19:12.764Z,15.94
2023-04-20T10:21:49.500Z,15.93
2023-04-20T10:24:30.605Z,15.95
2023-04-20T10:26:59.676Z,15.92
2023-04-20T10:29:27.846Z,15.94
2023-04-20T10:31:55.080Z,16.07
2023-04-20T10:34:33.658Z,16.03
2023-04-20T10:37:11.778Z,15.96
2023-04-20T10:39:48.283Z,15.81
2023-04-20T14:05:38.498Z,15.29
2023-04-20T14:08:06.763Z,15.32
2023-04-20T14:10:42.588Z,15.35
2023-04-20T14:13:09.700Z,15.36
2023-04-20T14:15:37.448Z,15.37
2023-04-20T14:18:09.303Z,15.39
2023-04-20T14:20:36.427Z,15.39
2023-04-20T14:23:04.114Z,15.41
2023-04-20T14:25:33.539Z,15.43
2023-04-20T14:28:00.203Z,15.45
2023-04-20T14:30:27.655Z,15.47
2023-04-20T14:32:59.208Z,15.49
2023-04-20T14:35:27.486Z,15.49
2023-04-20T14:37:54.569Z,15.51
2023-04-20T14:40:24.829Z,15.52
2023-04-20T14:42:54.028Z,15.54
2023-04-20T14:45:20.755Z,15.58
2023-04-20T14:47:55.832Z,15.60
2023-04-20T14:50:28.021Z,15.62
2023-04-20T14:52:55.518Z,15.63
2023-04-20T14:55:25.120Z,15.66
2023-04-20T14:57:58.799Z,15.69
2023-04-20T15:00:27.562Z,15.70
2023-04-20T15:02:58.982Z,15.71
2023-04-20T15:05:29.273Z,15.72
2023-04-20T15:07:57.012Z,15.74
2023-04-20T15:10:25.989Z,15.77
2023-04-20T15:12:52.817Z,15.78
2023-04-20T15:15:19.894Z,15.80
2023-04-20T15:17:46.744Z,15.82
2023-04-20T15:20:16.983Z,15.82
2023-04-20T15:22:43.481Z,15.84
2023-04-20T15:25:12.488Z,15.83
2023-04-20T15:27:39.783Z,15.82
2023-04-20T15:30:07.424Z,15.82
2023-04-20T15:32:34.203Z,15.82
2023-04-20T15:35:03.212Z,15.83
2023-04-20T15:37:29.774Z,15.81
2023-04-20T15:40:01.166Z,15.82
2023-04-20T15:42:28.023Z,15.81
2023-04-20T15:44:57.753Z,15.80
2023-04-20T15:47:26.915Z,15.80
2023-04-20T15:50:00.609Z,15.77
2023-04-20T15:52:30.095Z,15.76
2023-04-20T15:54:59.171Z,15.73
2023-04-20T15:57:25.865Z,15.71
2023-04-20T15:59:57.717Z,15.70
2023-04-20T16:02:24.942Z,15.69
2023-04-20T16:04:55.058Z,15.68
2023-04-20T16:07:22.113Z,15.69
2023-04-20T16:09:48.906Z,15.70
2023-04-20T16:12:15.640Z,15.70
2023-04-20T16:14:42.592Z,15.71
2023-04-20T16:17:14.868Z,15.71
2023-04-20T16:19:43.790Z,15.72
2023-04-20T16:22:13.508Z,15.70
2023-04-20T16:24:40.287Z,15.70
2023-04-20T16:27:07.049Z,15.69
2023-04-20T16:29:33.917Z,15.70
2023-04-20T16:32:03.165Z,15.69
2023-04-20T16:34:31.001Z,15.69
2023-04-20T16:36:58.050Z,15.68
2023-04-20T16:39:24.772Z,15.68
2023-04-20T16:41:51.734Z,15.67
2023-04-20T16:44:19.013Z,15.66
2023-04-20T16:46:49.374Z,15.65
2023-04-20T16:49:16.676Z,15.64
2023-04-20T16:51:43.721Z,15.63
2023-04-20T16:54:13.669Z,15.60
2023-04-20T16:56:40.860Z,15.58
2023-04-20T16:59:10.690Z,15.57
2023-04-20T17:01:37.951Z,15.54
2023-04-20T17:04:04.846Z,15.53
2023-04-20T19:45:56.323Z,14.29
2023-04-20T19:48:26.130Z,14.25
2023-04-20T19:50:59.021Z,14.22
2023-04-20T19:53:26.394Z,14.21
2023-04-20T19:55:55.887Z,14.19
2023-04-20T19:58:25.046Z,14.16
2023-04-20T20:00:51.640Z,14.15
2023-04-20T20:03:18.488Z,14.14
2023-04-20T20:05:48.011Z,14.11
2023-04-20T20:08:20.178Z,14.09
2023-04-20T20:10:51.920Z,14.06
2023-04-20T20:13:25.762Z,14.05
2023-04-20T20:15:55.368Z,14.02
2023-04-20T20:18:25.583Z,13.99
2023-04-20T20:21:01.499Z,13.96
2023-04-20T20:23:38.051Z,13.94
2023-04-20T20:26:04.820Z,13.92
2023-04-20T20:28:31.834Z,13.89
2023-04-20T20:31:08.669Z,13.87
2023-04-20T20:33:36.982Z,13.85
2023-04-20T20:36:06.310Z,13.83
2023-04-20T20:38:34.036Z,13.79
2023-04-20T20:41:01.156Z,13.77
2023-04-20T20:43:49.851Z,13.77
2023-04-20T20:46:20.814Z,13.75
2023-04-20T20:49:02.343Z,13.72
2023-04-20T20:51:29.362Z,13.68
2023-04-20T20:53:56.000Z,13.66
2023-04-20T20:56:22.913Z,13.62
2023-04-20T20:58:53.418Z,13.60
2023-04-20T21:01:22.878Z,13.56
2023-04-20T21:03:50.052Z,13.52
2023-04-20T21:06:19.358Z,13.49
2023-04-20T21:08:46.172Z,13.45
2023-04-20T21:11:13.020Z,13.43
2023-04-20T21:13:42.117Z,13.41
2023-04-20T21:16:08.716Z,13.39
2023-04-20T21:18:38.032Z,13.39
2023-04-20T21:21:04.860Z,13.37
2023-04-20T21:23:33.959Z,13.35
2023-04-20T21:26:00.968Z,13.32
2023-04-20T21:28:28.162Z,13.30
2023-04-20T21:30:54.856Z,13.28
2023-04-20T21:33:23.795Z,13.27
2023-04-20T21:35:50.947Z,13.24
2023-04-20T21:38:25.174Z,13.22
2023-04-20T21:40:55.684Z,13.22
2023-04-20T21:43:49.863Z,13.21
2023-04-20T21:46:17.173Z,13.16
2023-04-20T21:48:46.592Z,13.15
2023-04-20T21:51:17.478Z,13.12
2023-04-20T21:53:54.011Z,13.09
2023-04-20T21:56:20.845Z,13.07
2023-04-20T21:58:49.882Z,13.04
2023-04-20T22:01:17.183Z,13.03
2023-04-20T22:03:44.271Z,13.02
2023-04-20T22:06:10.986Z,13.02
2023-04-20T22:08:39.204Z,13.01
2023-04-20T22:11:08.610Z,13.02
2023-04-20T22:13:35.920Z,13.01
2023-04-20T22:16:07.713Z,13.00
2023-04-20T22:18:34.720Z,12.98
2023-04-20T22:21:03.537Z,12.96
2023-04-20T22:23:30.300Z,12.91
2023-04-20T22:25:57.114Z,12.90
2023-04-20T22:28:24.088Z,12.87
2023-04-20T22:30:52.937Z,12.85
2023-04-20T22:33:20.324Z,12.85
2023-04-20T22:35:47.147Z,12.82
2023-04-20T22:38:13.868Z,12.79
2023-04-20T22:40:43.570Z,12.74
2023-04-20T22:43:12.475Z,12.74
2023-04-20T22:45:41.830Z,12.72
2023-04-20T22:48:11.143Z,12.71
2023-04-20T22:50:37.831Z,12.69
2023-04-20T22:53:04.704Z,12.65
2023-04-20T22:55:31.203Z,12.63
2023-04-20T22:58:00.495Z,12.60
2023-04-20T23:00:29.650Z,12.56
2023-04-20T23:02:56.663Z,12.54
2023-04-20T23:05:25.908Z,12.49
2023-04-20T23:07:53.294Z,12.46
2023-04-20T23:10:19.933Z,12.42
2023-04-20T23:12:47.275Z,12.40
2023-04-20T23:15:19.658Z,12.38
2023-04-20T23:17:46.236Z,12.33
2023-04-20T23:20:13.942Z,12.31
2023-04-20T23:22:40.672Z,12.26
2023-04-20T23:25:10.310Z,12.22
2023-04-20T23:27:37.321Z,12.19
2023-04-20T23:30:05.936Z,12.16
2023-04-20T23:32:32.780Z,12.13
2023-04-20T23:34:59.660Z,12.10
2023-04-20T23:37:26.485Z,12.08
2023-04-20T23:39:53.218Z,12.06
2023-04-20T23:42:20.017Z,12.05
2023-04-20T23:44:46.749Z,12.01
2023-04-20T23:47:14.886Z,12.00
2023-04-20T23:49:41.763Z,11.97
2023-04-20T23:52:08.326Z,11.95
2023-04-20T23:54:34.932Z,11.94
2023-04-20T23:57:02.178Z,11.90
2023-04-20T23:59:33.976Z,11.89
